Saint-Charles-De-Bellechasse, Canada
Current Conditions -  °F | °C
As of 2:00 AM on Monday 24 Nov 2014 (Local Time) from CYQB Reporting Station
Haze Haze  
Wind Chill: 30°   Ceiling: 200
Heat Index: 36°   Visibility: 1mi
Dew Point: 34°   Wind: 7mph
Humidity: 93%   Direction: 40°NE
Pressure: 29.96"   Gusts: NA
Location:  46.77°N, 70.95°W
Report Text: CYQB 240700Z 04006KT 1SM R06/P6000FT/D BR BKN002 OVC049 02/01 A2996 RMK SF6SC2 SLP147
Loading
Personal Weather Stations






























Interactive Weather Map New forecast layout! Learn more

10-Day Weather Forecast

Advertisements
Track Severe Weather on mobile